Tiempo atmosférico en la estación meteorológica de Najera, La Rioja (500 m.)



Fecha
DESCASC
Temp. máxima en grados centígrados (hora)
DESCASC
Temp. mínima en grados centígrados (hora)
DESCASC
Temp. media en grados centígrados
DESCASC
Racha de viento máxima en m/sg (hora)
DESCASC
Velocidad máxima media en intervalos de 10 minutos(hora)
DESCASC
Precipitaciones diarias en mm
DESCASC
Precipitaciones de 00:00 a 06:00 en mm
DESCASC
Precipitaciones de 06:00 a 12:00 en mm
DESCASC
Precipitaciones de 12:00 a 18:00 en mm
DESCASC
Precipitaciones de 18:00 a 24:00 en mm
DESCASC
23-06-2019 32.3 (18:50) 15.2 (06:40) 23.7 6.39 (23:00) 3.33 (14:00) 0 0 0 0 0
22-06-2019 29.1 (18:40) 8.4 (06:50) 18.8 8.33 (16:30) 5.28 (17:00) 0 0 0 0 0
21-06-2019 21.1 (18:40) 13.3 (05:20) 17.2 6.67 (05:00) 3.33 (05:00) 11.8 11.8 0 0 0
20-06-2019 20.8 (17:00) 14.3 (00:00) 17.5 6.67 (00:50) 3.61 (00:50) 11.4 0 0 0 11.4
19-06-2019 -- (--) -- (--) -- -- (--) -- (--) -- -- -- -- 0
18-06-2019 33.4 (17:10) 18.9 (00:00) 26.2 10.83 (21:20) 6.11 (16:30) 0 0 0 0 0
17-06-2019 32.4 (17:30) 11.1 (00:00) 21.8 7.78 (17:10) 3.89 (18:10) 0 0 0 0 0
16-06-2019 28.9 (17:20) 7.8 (00:00) 18.3 8.89 (15:00) 5 (15:00) 0 0 0 0 0
15-06-2019 24.5 (18:10) 10.5 (00:00) 17.5 7.5 (14:50) 3.06 (15:50) 0 0 0 0 0
14-06-2019 26.3 (17:10) 11.5 (00:00) 18.9 10 (19:10) 4.44 (18:30) 0 0 0 0 0
13-06-2019 28.6 (16:30) 6.4 (00:00) 17.5 11.11 (14:10) 6.39 (14:10) 0 0 0 0 0
12-06-2019 22.5 (18:20) 5.9 (00:00) 14.2 6.39 (15:50) 3.61 (20:30) 0 0 0 0 0
11-06-2019 16.8 (17:10) 8.8 (00:00) 12.8 11.39 (18:10) 3.89 (15:40) 4.6 3.6 0.6 0.4 0
10-06-2019 19.3 (17:30) 10.4 (00:00) 14.8 8.33 (18:50) 4.17 (18:30) 0 0 0 0 0
09-06-2019 25.3 (16:10) 11 (00:00) 18.1 8.89 (17:20) 3.89 (18:10) 0 0 0 0 0
08-06-2019 25.5 (18:00) 5.9 (00:00) 15.7 10 (16:50) 5.28 (16:20) 0.6 0 0 0 0.6
07-06-2019 21 (17:10) 8.9 (00:00) 14.9 13.06 (01:40) 6.39 (15:50) 0.8 0.8 0 0 0
06-06-2019 26 (17:10) 8.9 (00:00) 17.4 12.22 (18:20) 5.56 (12:30) 0.2 0 0.2 0 0
05-06-2019 16.5 (14:30) 10.3 (00:00) 13.4 11.94 (14:40) 4.44 (15:00) 15.2 3.4 9.8 0.6 1.4
04-06-2019 30.3 (16:50) 11.6 (00:00) 20.9 11.11 (17:10) 5 (18:10) 0 0 0 0 0
03-06-2019 31.7 (18:10) 14.3 (00:00) 23 6.67 (15:20) 3.61 (18:40) 0 0 0 0 0
02-06-2019 32 (17:40) 13.2 (00:00) 22.6 7.78 (21:30) 3.61 (17:40) 0 0 0 0 0
01-06-2019 32.6 (19:00) 10.2 (00:00) 21.4 7.5 (14:50) 4.17 (14:50) 0 0 0 0 0
31-05-2019 30.8 (18:10) 11.1 (00:00) 20.9 7.22 (14:10) 3.89 (16:30) 0 0 0 0 0
30-05-2019 28.6 (19:10) 6.7 (00:00) 17.7 6.11 (19:30) 2.22 (14:20) 0 0 0 0 0
29-05-2019 19.3 (19:10) 10.2 (00:00) 14.7 7.22 (17:50) 2.78 (16:10) 0 0 0 0 0
28-05-2019 17.1 (17:20) 9 (00:00) 13.1 7.78 (17:00) 3.33 (16:50) 0 0 0 0 0
27-05-2019 20.3 (17:50) 9.9 (00:00) 15.1 8.33 (18:50) 3.61 (19:10) 0 0 0 0 0

Gráficas

Temp. máximas Temp. mínimas Temp. medias Precipitaciones Rachas de viento máximas Velocidades máximas media en intervalos de 10 minutos

Datos horarios

Fecha y hora oficial Temperatura (ºC) Velocidad del viento (km/h) Dirección del viento Racha (km/h) Dirección de racha Precipitación (mm) Presión (hPa) Tendencia (hPa) Humedad (%)
2019-06-25 23:00:00 23.7 6 Oeste 22 Oeste 0 -- -- 69
2019-06-25 22:00:00 27 6 Sudoeste 16 Sur 0 -- -- 59
2019-06-25 21:00:00 32.6 3 Sudoeste 22 Este 0 -- -- 41
2019-06-25 20:00:00 33.3 14 Este 30 Este 0 -- -- 37
2019-06-25 19:00:00 34.1 12 Este 28 Este 0 -- -- 36
2019-06-25 18:00:00 33.7 14 Nordeste 26 Nordeste 0 -- -- 38
2019-06-25 17:00:00 32.3 12 Nordeste 30 Este 0 -- -- 41
2019-06-25 16:00:00 31.4 15 Este 28 Nordeste 0 -- -- 42
2019-06-25 15:00:00 29.3 13 Nordeste 22 Este 0 -- -- 46
2019-06-25 14:00:00 27.2 8 Este 21 Este 0 -- -- 51
2019-06-25 13:00:00 25.5 10 Nordeste 18 Nordeste 0 -- -- 55
2019-06-25 12:00:00 22.9 4 Nordeste 11 Nordeste 0 -- -- 61
2019-06-25 11:00:00 20.3 3 Norte 8 Norte 0 -- -- 71
2019-06-25 10:00:00 19.4 0 Calma 6 Oeste 0 -- -- 70
2019-06-25 09:00:00 18.2 0 Calma 5 Sur 0 -- -- 76
2019-06-25 08:00:00 16.2 2 Sudoeste 8 Sur 0 -- -- 83
2019-06-25 07:00:00 14.7 4 Sur 7 Sur 0 -- -- 88
2019-06-25 06:00:00 15.3 3 Sur 9 Sur 0 -- -- 86
2019-06-25 05:00:00 15.6 5 Sur 10 Sur 0 -- -- 86
2019-06-25 04:00:00 16.1 5 Sur 9 Sur 0 -- -- 86
2019-06-25 03:00:00 17 2 Sudoeste 13 Sudoeste 0 -- -- 83
2019-06-25 02:00:00 17.4 5 Sur 11 Sudoeste 0 -- -- 82
2019-06-25 01:00:00 18.2 4 Sur 8 Sudoeste 0 -- -- 78
2019-06-25 00:00:00 19.3 4 Sudoeste 20 Noroeste 0 -- -- 75
2019-06-24 23:00:00 20.4 9 Noroeste 47 Oeste 0 -- -- 71
2019-06-24 22:00:00 23.1 22 Oeste 43 Oeste 0 -- -- 64
2019-06-24 21:00:00 26.9 3 Sur 9 Nordeste 0 -- -- 53
2019-06-24 20:00:00 28 4 Noroeste 10 Oeste 0 -- -- 49
2019-06-24 19:00:00 29.5 2 Sudeste 10 Sur 0 -- -- 44
2019-06-24 18:00:00 29.6 3 Sur 17 Nordeste 0 -- -- 46
2019-06-24 17:00:00 29.4 8 Nordeste 28 Nordeste 0 -- -- 39
2019-06-24 16:00:00 30.3 13 Nordeste 26 Nordeste 0 -- -- 38
2019-06-24 15:00:00 29.4 14 Este 23 Este 0 -- -- 38
2019-06-24 14:00:00 25.9 4 Sudoeste 14 Nordeste 0 -- -- 54
2019-06-24 13:00:00 24.4 6 Sur 12 Sur 0 -- -- 59
2019-06-24 12:00:00 25 5 Sur 15 Sudeste 0 -- -- 54
2019-06-24 11:00:00 24.3 8 Este 22 Este 0 -- -- 56
2019-06-24 10:00:00 22.8 13 Nordeste 21 Nordeste 0 -- -- 54
2019-06-24 09:00:00 20.2 4 Nordeste 9 Nordeste 0 -- -- 64
2019-06-24 08:00:00 17.5 2 Sur 6 Sudoeste 0 -- -- 86
2019-06-24 07:00:00 17.2 3 Sur 6 Sur 0 -- -- 86
2019-06-24 06:00:00 17.6 3 Sur 9 Sudeste 0 -- -- 85
2019-06-24 05:00:00 18.6 4 Sur 6 Sudeste 0 -- -- 83
2019-06-24 04:00:00 19.5 2 Sur 6 Sur 0 -- -- 79
2019-06-24 03:00:00 20.5 0 Calma 4 Este 0 -- -- 73
2019-06-24 02:00:00 21.3 2 Noroeste 10 Oeste 0 -- -- 68
2019-06-24 01:00:00 21.7 3 Sudoeste 14 Sur 0 -- -- 67
2019-06-24 00:00:00 22.5 5 Sur 20 Oeste 0 -- -- 64
2019-06-23 23:00:00 23.3 12 Oeste 23 Oeste 0 -- -- 61
2019-06-23 22:00:00 26.1 4 Oeste 14 Noroeste 0 -- -- 61
2019-06-23 21:00:00 28.6 5 Sur 8 Sur 0 -- -- 58
2019-06-23 20:00:00 30.9 2 Noroeste 9 Noroeste 0 -- -- 43
2019-06-23 19:00:00 32 4 Noroeste 11 Norte 0 -- -- 36
2019-06-23 18:00:00 31.3 3 Noroeste 15 Nordeste 0 -- -- 38
2019-06-23 17:00:00 31.4 7 Nordeste 20 Nordeste 0 -- -- 40
2019-06-23 16:00:00 30.6 9 Nordeste 19 Nordeste 0 -- -- 44
2019-06-23 15:00:00 29.1 11 Nordeste 20 Este 0 -- -- 50
2019-06-23 14:00:00 27.9 12 Nordeste 22 Este 0 -- -- 51
2019-06-23 13:00:00 26.6 8 Este 14 Este 0 -- -- 52
2019-06-23 12:00:00 24.1 4 Sudeste 8 Sudoeste 0 -- -- 62
2019-06-23 11:00:00 21.3 3 Sudoeste 8 Sur 0 -- -- 70
2019-06-23 10:00:00 18.8 2 Sur 6 Sudeste 0 -- -- 79
2019-06-23 09:00:00 16.3 3 Sudoeste 5 Sudoeste 0 -- -- 87
2019-06-23 08:00:00 15.2 3 Sur 8 Sur 0 -- -- 87
2019-06-23 07:00:00 15.2 2 Sur 8 Sudeste 0 -- -- 87
2019-06-23 06:00:00 15.6 3 Sur 6 Sur 0 -- -- 86
2019-06-23 05:00:00 15.7 4 Sur 9 Sudeste 0 -- -- 86
2019-06-23 04:00:00 16.5 3 Sudeste 7 Sur 0 -- -- 84
2019-06-23 03:00:00 17.1 2 Sur 8 Sur 0 -- -- 82
2019-06-23 02:00:00 18.2 4 Sur 8 Sur 0 -- -- 81
2019-06-23 01:00:00 19.4 5 Sur 8 Sur 0 -- -- 77
2019-06-23 00:00:00 20.4 5 Sudeste 8 Sur 0 -- -- 74
2019-06-22 23:00:00 22.3 5 Sur 8 Sudeste 0 -- -- 68
2019-06-22 22:00:00 24.7 0 Calma 14 Sur 0 -- -- 53
2019-06-22 21:00:00 26.8 5 Este 22 Este 0 -- -- 48
2019-06-22 20:00:00 28.1 11 Este 23 Nordeste 0 -- -- 43
2019-06-22 19:00:00 28.7 15 Este 28 Este 0 -- -- 40
2019-06-22 18:00:00 28.9 17 Este 29 Nordeste 0 -- -- 41
2019-06-22 17:00:00 28.3 19 Este 30 Este 0 -- -- 40
2019-06-22 16:00:00 27.6 14 Este 24 Este 0 -- -- 43
2019-06-22 15:00:00 26.2 12 Nordeste 24 Este 0 -- -- 43
2019-06-22 14:00:00 24.8 11 Este 21 Este 0 -- -- 49
2019-06-22 13:00:00 22.5 6 Nordeste 16 Norte 0 -- -- 53
2019-06-22 12:00:00 20.1 5 Norte 13 Norte 0 -- -- 62
2019-06-22 11:00:00 17.2 2 Noroeste 9 Nordeste 0 -- -- 66
2019-06-22 10:00:00 15.2 3 Noroeste 8 Nordeste 0 -- -- 74
2019-06-22 09:00:00 12.9 2 Sudeste 6 Sur 0 -- -- 82
2019-06-22 08:00:00 10.3 2 Sur 6 Sur 0 -- -- 91
2019-06-22 07:00:00 8.4 2 Sur 6 Sudeste 0 -- -- 93
2019-06-22 06:00:00 8.7 4 Sur 8 Sur 0 -- -- 93
2019-06-22 05:00:00 9.2 3 Sur 6 Sur 0 -- -- 92
2019-06-22 04:00:00 9.9 5 Sur 10 Sur 0 -- -- 92
2019-06-22 03:00:00 10.7 0 Calma 6 Sudeste 0 -- -- 90
2019-06-22 02:00:00 11.4 3 Sur 7 Sur 0 -- -- 89
2019-06-22 01:00:00 12.2 5 Sur 9 Sur 0 -- -- 88
2019-06-22 00:00:00 13.3 4 Sur 8 Sur 0 -- -- 84
2019-06-21 23:00:00 15.2 3 Sudoeste 7 Noroeste 0 -- -- 76
2019-06-21 22:00:00 16.7 4 Noroeste 13 Norte 0 -- -- 66
2019-06-21 21:00:00 19.4 3 Noroeste 15 Noroeste 0 -- -- 58
2019-06-21 20:00:00 19 7 Norte 19 Norte 0 -- -- 59
2019-06-21 19:00:00 20.6 4 Norte 17 Oeste 0 -- -- 55
2019-06-21 18:00:00 20.4 5 Norte 21 Norte 0 -- -- 55
2019-06-21 17:00:00 20.4 5 Norte 18 Oeste 0 -- -- 57
2019-06-21 16:00:00 20 5 Noroeste 20 Oeste 0 -- -- 58
2019-06-21 15:00:00 19 10 Noroeste 21 Oeste 0 -- -- 62
2019-06-21 14:00:00 17.8 6 Noroeste 13 Noroeste 0 -- -- 67
2019-06-21 13:00:00 17.1 4 Oeste 17 Noroeste 0 -- -- 70
2019-06-21 12:00:00 16 6 Noroeste 17 Noroeste 0 -- -- 77
2019-06-21 11:00:00 14.6 6 Oeste 14 Oeste 0 -- -- 84
2019-06-21 10:00:00 14.1 2 Noroeste 14 Noroeste 0 -- -- 87
2019-06-21 09:00:00 13.6 4 Oeste 14 Oeste 0 -- -- 91
2019-06-21 08:00:00 13.4 6 Oeste 16 Oeste 0 -- -- 92
2019-06-21 07:00:00 13.4 3 Sur 12 Oeste 0 -- -- 94
2019-06-21 06:00:00 13.3 4 Oeste 19 Oeste 0.6 -- -- 95
2019-06-21 05:00:00 13.5 12 Oeste 24 Oeste 1.2 -- -- 94
2019-06-21 04:00:00 13.5 8 Oeste 15 Sudoeste 0 -- -- 94
2019-06-21 03:00:00 13.6 6 Oeste 22 Noroeste 3.4 -- -- 95
2019-06-21 02:00:00 13.7 9 Oeste 19 Sudoeste 5.8 -- -- 94
2019-06-21 01:00:00 14.2 3 Sudoeste 19 Oeste 0.8 -- -- 92
2019-06-21 00:00:00 14.3 10 Oeste 17 Noroeste 1.2 -- -- 92
2019-06-20 23:00:00 15.1 3 Sudoeste 10 Sur 2 -- -- 94
2019-06-20 22:00:00 15.2 5 Sur 16 Sur 2.6 -- -- 93
2019-06-20 21:00:00 15.2 10 Sudoeste 19 Sudoeste 2 -- -- 91
2019-06-20 20:00:00 16.3 5 Sur 20 Oeste 2.2 -- -- 89
2019-06-20 19:00:00 17.4 7 Oeste 18 Oeste 1.4 -- -- 79
2019-06-20 18:00:00 19.9 9 Noroeste 19 Noroeste 0 -- -- 62
2019-06-20 17:00:00 20.8 8 Noroeste 17 Noroeste 0 -- -- 60
2019-06-20 16:00:00 20.6 4 Norte 19 Oeste 0 -- -- 62
2019-06-20 15:00:00 19.5 10 Noroeste 24 Oeste 0 -- -- 65
2019-06-20 14:00:00 19.9 3 Noroeste 10 Norte 0 -- -- 63
2019-06-20 13:00:00 19.4 4 Norte 14 Oeste 0 -- -- 65
2019-06-20 12:00:00 18.8 3 Norte 14 Oeste 0 -- -- 66
2019-06-20 11:00:00 17.7 5 Oeste 10 Oeste 0 -- -- 71
2019-06-20 10:00:00 17 4 Sudoeste 11 Sudoeste 0 -- -- 74
2019-06-20 09:00:00 16.5 5 Oeste 14 Oeste 0 -- -- 77
2019-06-20 08:00:00 16 7 Oeste 13 Sudoeste 0 -- -- 80
2019-06-20 07:00:00 15.3 6 Oeste 17 Oeste 0 -- -- 82
2019-06-20 06:00:00 15.6 8 Oeste 17 Oeste 0 -- -- 80
2019-06-20 05:00:00 15.9 4 Oeste 13 Oeste 0 -- -- 80
2019-06-20 04:00:00 16.1 4 Sudoeste 17 Oeste 0 -- -- 81
2019-06-20 03:00:00 16.3 6 Oeste 17 Oeste 0 -- -- 81
2019-06-20 02:00:00 16.4 6 Oeste 21 Oeste 0 -- -- 80
2019-06-20 01:00:00 16.4 12 Oeste 24 Oeste 0 -- -- 82
2019-06-20 00:00:00 16.8 11 Oeste 28 Oeste 0 -- -- 81
2019-06-19 23:00:00 18.1 14 Oeste 30 Oeste 0 -- -- 76
2019-06-19 22:00:00 21.6 8 Oeste 22 Oeste 0 -- -- 63
2019-06-19 21:00:00 26.1 8 Norte 21 Noroeste 0 -- -- 46
2019-06-19 20:00:00 27.4 4 Noroeste 22 Norte 0 -- -- 39
2019-06-19 19:00:00 28.1 10 Noroeste 20 Oeste 0 -- -- 39
2019-06-19 18:00:00 27.6 4 Noroeste 16 Este 0 -- -- 37
2019-06-19 17:00:00 26.9 4 Nordeste 11 Sur 0 -- -- 36
2019-06-19 16:00:00 27.2 4 Sur 15 Sudoeste 0 -- -- 37
2019-06-19 15:00:00 26 7 Sur -- -- -- -- -- 38
2019-06-19 14:00:00 -- -- -- -- -- -- -- -- --
2019-06-19 13:00:00 24.2 10 Sudoeste -- -- -- -- -- 42
2019-06-19 12:00:00 -- -- -- -- -- -- -- -- --
2019-06-19 11:00:00 -- -- -- -- -- -- -- -- --
2019-06-19 10:00:00 -- -- -- -- -- -- -- -- --
2019-06-19 09:00:00 -- -- -- -- -- -- -- -- --
2019-06-19 08:00:00 -- -- -- -- -- -- -- -- --
2019-06-19 07:00:00 -- -- -- -- -- -- -- -- --
2019-06-19 06:00:00 -- -- -- -- -- -- -- -- --
2019-06-19 05:00:00 -- -- -- -- -- -- -- -- --
2019-06-19 04:00:00 17.2 2 Sudoeste 11 Sudoeste 0 -- -- 62
2019-06-19 03:00:00 19.2 4 Sudoeste 20 Oeste 0 -- -- 55
2019-06-19 02:00:00 19.2 5 Oeste 13 Oeste 0 -- -- 54
2019-06-19 01:00:00 20.4 4 Sudoeste 9 Sur 0 -- -- 50
2019-06-19 00:00:00 22.9 3 Norte 14 Oeste 0 -- -- 42
2019-06-18 23:00:00 24.6 6 Oeste 28 Oeste 0 -- -- 38
2019-06-18 22:00:00 26.1 11 Oeste 39 Oeste -- -- -- 34
2019-06-18 21:00:00 30.5 7 Oeste 32 Oeste 0 -- -- 23
2019-06-18 20:00:00 31.8 14 Sudoeste 31 Sudoeste 0 -- -- 17
2019-06-18 19:00:00 33 12 Sudoeste 33 Sur 0 -- -- 18
2019-06-18 18:00:00 33.1 15 Sudoeste 35 Sudoeste 0 -- -- 16
2019-06-18 17:00:00 33.1 15 Sudoeste 39 Sudoeste 0 -- -- 17
2019-06-18 16:00:00 33 17 Sudoeste 37 Sudoeste 0 -- -- 19
2019-06-18 15:00:00 32.3 13 Sudoeste 30 Sudoeste 0 -- -- 18
2019-06-18 14:00:00 31.3 5 Nordeste 22 Norte 0 -- -- 27
2019-06-18 13:00:00 29.6 14 Nordeste 23 Nordeste 0 -- -- 32
2019-06-18 12:00:00 27.4 10 Norte 18 Norte 0 -- -- 35
2019-06-18 11:00:00 24.4 11 Este 19 Nordeste 0 -- -- 44
2019-06-18 10:00:00 21.5 8 Nordeste 15 Este 0 -- -- 50
2019-06-18 09:00:00 19.4 3 Sur 14 Este 0 -- -- 59
2019-06-18 08:00:00 19.9 7 Este 16 Este 0 -- -- 58
2019-06-18 07:00:00 18.9 9 Nordeste 19 Este 0 -- -- 61
2019-06-18 06:00:00 20.1 4 Norte 15 Nordeste 0 -- -- 51
2019-06-18 05:00:00 19.8 5 Norte 9 Norte 0 -- -- 53
2019-06-18 04:00:00 19.9 4 Este 9 Sur 0 -- -- 56
2019-06-18 03:00:00 20.5 5 Sudeste 9 Sur 0 -- -- 52
2019-06-18 02:00:00 21.3 3 Este 13 Sudoeste 0 -- -- 50
2019-06-18 01:00:00 22.3 7 Sur 15 Sudoeste 0 -- -- 48
2019-06-18 00:00:00 23.4 5 Sur 18 Oeste 0 -- -- 46
2019-06-17 23:00:00 24.7 9 Oeste 22 Oeste 0 -- -- 43
2019-06-17 22:00:00 25.9 4 Sur 9 Sur 0 -- -- 43
2019-06-17 21:00:00 29 0 Calma 11 Nordeste 0 -- -- 34
2019-06-17 20:00:00 30 6 Nordeste 16 Nordeste 0 -- -- 30
2019-06-17 19:00:00 30.5 10 Nordeste 23 Nordeste 0 -- -- 28
2019-06-17 18:00:00 32.3 7 Nordeste 28 Nordeste 0 -- -- 28
2019-06-17 17:00:00 32.1 12 Nordeste 23 Nordeste 0 -- -- 28
2019-06-17 16:00:00 31.5 10 Este 24 Nordeste 0 -- -- 28
2019-06-17 15:00:00 30.4 12 Nordeste 22 Nordeste 0 -- -- 30
2019-06-17 14:00:00 28.7 6 Norte 21 Nordeste 0 -- -- 34
2019-06-17 13:00:00 26.3 10 Nordeste 20 Nordeste 0 -- -- 43
2019-06-17 12:00:00 24.5 8 Nordeste 15 Norte 0 -- -- 51
2019-06-17 11:00:00 21.9 5 Nordeste 12 Nordeste 0 -- -- 56
2019-06-17 10:00:00 19 4 Oeste 6 Oeste 0 -- -- 60
2019-06-17 09:00:00 16.7 2 Sur 6 Sur 0 -- -- 67
2019-06-17 08:00:00 13 3 Sur 8 Sur 0 -- -- 79
2019-06-17 07:00:00 11.1 4 Sur 9 Sur 0 -- -- 84
2019-06-17 06:00:00 11.7 3 Sur 8 Sudeste 0 -- -- 82
2019-06-17 05:00:00 12.3 3 Sur 9 Sur 0 -- -- 80
2019-06-17 04:00:00 13.2 5 Sur 12 Sur 0 -- -- 77
2019-06-17 03:00:00 14.3 6 Sur 10 Sur 0 -- -- 73
2019-06-17 02:00:00 16 6 Sur 15 Sudoeste 0 -- -- 68
2019-06-17 01:00:00 17.2 4 Sur 12 Sur 0 -- -- 68
2019-06-17 00:00:00 18.9 3 Sudeste 14 Sur 0 -- -- 58
2019-06-16 23:00:00 20.8 5 Sudeste 11 Sudeste 0 -- -- 52
2019-06-16 22:00:00 23.9 0 Calma 5 Norte 0 -- -- 42
2019-06-16 21:00:00 25.8 5 Nordeste 14 Este 0 -- -- 35
2019-06-16 20:00:00 27.5 9 Nordeste 19 Nordeste 0 -- -- 32
2019-06-16 19:00:00 28 10 Este 23 Este 0 -- -- 31
2019-06-16 18:00:00 28.8 14 Nordeste 28 Este 0 -- -- 30
2019-06-16 17:00:00 28.6 15 Nordeste 32 Nordeste 0 -- -- 30
2019-06-16 16:00:00 28 17 Nordeste 31 Nordeste 0 -- -- 32
2019-06-16 15:00:00 27.2 18 Este 32 Este 0 -- -- 35
2019-06-16 14:00:00 25.4 14 Nordeste 29 Este 0 -- -- 38
2019-06-16 13:00:00 23.1 12 Nordeste 26 Este 0 -- -- 43
2019-06-16 12:00:00 20.8 8 Nordeste 15 Este 0 -- -- 49
2019-06-16 11:00:00 17.6 5 Nordeste 11 Este 0 -- -- 59
2019-06-16 10:00:00 15.2 3 Norte 10 Nordeste 0 -- -- 66
2019-06-16 09:00:00 12.9 3 Norte 5 Norte 0 -- -- 73
2019-06-16 08:00:00 9.9 4 Sur 7 Sudeste 0 -- -- 85
2019-06-16 07:00:00 7.8 3 Sur 6 Sur 0 -- -- 89
2019-06-16 06:00:00 8.2 4 Sur 10 Sur 0 -- -- 88
2019-06-16 05:00:00 8.9 4 Sur 9 Sur 0 -- -- 87
2019-06-16 04:00:00 9.6 4 Sur 7 Sur 0 -- -- 85
2019-06-16 03:00:00 10.6 5 Sur 8 Sur 0 -- -- 82
2019-06-16 02:00:00 11.8 4 Sur 10 Sur 0 -- -- 77
2019-06-16 01:00:00 12.5 5 Sur 12 Sur 0 -- -- 74
2019-06-16 00:00:00 13.7 5 Sur 13 Sudoeste 0 -- -- 69
2019-06-15 23:00:00 15.5 4 Sur 15 Oeste 0 -- -- 64
2019-06-15 22:00:00 17.9 5 Noroeste 14 Noroeste 0 -- -- 56
2019-06-15 21:00:00 21.7 4 Noroeste 18 Norte 0 -- -- 46
2019-06-15 20:00:00 23.7 5 Noroeste 19 Norte 0 -- -- 39
2019-06-15 19:00:00 23.9 11 Norte 22 Norte 0 -- -- 37
2019-06-15 18:00:00 24.3 7 Noroeste 23 Oeste 0 -- -- 35
2019-06-15 17:00:00 23.7 6 Noroeste 24 Noroeste 0 -- -- 35
2019-06-15 16:00:00 23.5 6 Oeste 24 Noroeste 0 -- -- 35
2019-06-15 15:00:00 22.6 5 Nordeste 27 Oeste 0 -- -- 36
2019-06-15 14:00:00 21.7 7 Noroeste 21 Oeste 0 -- -- 40
2019-06-15 13:00:00 20.3 5 Norte 18 Oeste 0 -- -- 43
2019-06-15 12:00:00 18.6 3 Nordeste 15 Oeste 0 -- -- 49
2019-06-15 11:00:00 16.8 6 Noroeste 23 Sudoeste 0 -- -- 52
2019-06-15 10:00:00 15.6 4 Norte 19 Noroeste 0 -- -- 58
2019-06-15 09:00:00 14.1 5 Noroeste 13 Oeste 0 -- -- 62
2019-06-15 08:00:00 12 4 Sur 9 Sur 0 -- -- 78
2019-06-15 07:00:00 10.6 3 Sur 8 Sur 0 -- -- 82
2019-06-15 06:00:00 10.9 3 Sur 11 Sudoeste 0 -- -- 81
2019-06-15 05:00:00 11.7 6 Oeste 15 Oeste 0 -- -- 77
2019-06-15 04:00:00 12 4 Sudoeste 15 Sudoeste 0 -- -- 76
2019-06-15 03:00:00 12.7 6 Oeste 19 Sudoeste 0 -- -- 76
2019-06-15 02:00:00 13.5 7 Noroeste 18 Oeste 0 -- -- 77
2019-06-15 01:00:00 13.6 9 Oeste 18 Noroeste 0 -- -- 77
2019-06-15 00:00:00 14.1 9 Oeste 23 Oeste 0 -- -- 76
2019-06-14 23:00:00 14.2 11 Oeste 28 Oeste 0 -- -- 77
2019-06-14 22:00:00 14.4 13 Oeste 24 Oeste 0 -- -- 75
2019-06-14 21:00:00 16.5 12 Oeste 26 Oeste 0 -- -- 68
2019-06-14 20:00:00 19.5 13 Noroeste 36 Noroeste 0 -- -- 60
2019-06-14 19:00:00 22.5 13 Noroeste 31 Noroeste 0 -- -- 52
2019-06-14 18:00:00 25.1 12 Noroeste 27 Noroeste 0 -- -- 46
2019-06-14 17:00:00 25.9 5 Norte 14 Oeste 0 -- -- 38
2019-06-14 16:00:00 25.1 6 Norte 14 Nordeste 0 -- -- 41
2019-06-14 15:00:00 23.3 4 Norte 14 Norte 0 -- -- 47
2019-06-14 14:00:00 21 4 Sudeste 14 Sudeste 0 -- -- 53
2019-06-14 13:00:00 18.8 4 Oeste 14 Oeste 0 -- -- 60
2019-06-14 12:00:00 16.7 5 Sudoeste 16 Oeste 0 -- -- 66
2019-06-14 11:00:00 14.5 5 Oeste 14 Sudoeste 0 -- -- 74
2019-06-14 10:00:00 13.3 7 Oeste 14 Oeste 0 -- -- 78
2019-06-14 09:00:00 12.7 6 Oeste 14 Oeste 0 -- -- 81
2019-06-14 08:00:00 11.9 5 Oeste 14 Oeste 0 -- -- 84
2019-06-14 07:00:00 11.5 6 Oeste 12 Oeste 0 -- -- 86
2019-06-14 06:00:00 11.7 4 Oeste 9 Oeste 0 -- -- 85
2019-06-14 05:00:00 12.2 3 Sudoeste 9 Sudoeste 0 -- -- 83
2019-06-14 04:00:00 12.3 2 Sudoeste 9 Oeste 0 -- -- 82
2019-06-14 03:00:00 12.3 5 Sudoeste 17 Oeste 0 -- -- 82
2019-06-14 02:00:00 12.3 11 Oeste 22 Noroeste 0 -- -- 81
2019-06-14 01:00:00 12.4 11 Oeste 24 Oeste 0 -- -- 81
2019-06-14 00:00:00 12.6 14 Oeste 30 Oeste 0 -- -- 81
2019-06-13 23:00:00 12.9 14 Oeste 31 Oeste 0 -- -- 79
2019-06-13 22:00:00 13.7 19 Oeste 40 Oeste 0 -- -- 77
2019-06-13 21:00:00 16.2 18 Oeste 40 Oeste 0 -- -- 70
2019-06-13 20:00:00 22.2 14 Oeste 28 Noroeste 0 -- -- 53
2019-06-13 19:00:00 27.9 4 Norte 17 Oeste 0 -- -- 29
2019-06-13 18:00:00 27.8 6 Oeste 31 Sudoeste 0 -- -- 28
2019-06-13 17:00:00 28.4 13 Sudoeste 30 Sur 0 -- -- 25
2019-06-13 16:00:00 27.5 10 Sudoeste 31 Sur 0 -- -- 29
2019-06-13 15:00:00 25.8 9 Nordeste 40 Nordeste 0 -- -- 39
2019-06-13 14:00:00 24.5 20 Nordeste 33 Nordeste 0 -- -- 42
2019-06-13 13:00:00 22.2 18 Nordeste 35 Nordeste 0 -- -- 47
2019-06-13 12:00:00 20.2 14 Nordeste 29 Este 0 -- -- 51
2019-06-13 11:00:00 17.2 12 Nordeste 22 Este 0 -- -- 58
2019-06-13 10:00:00 13.2 4 Oeste 10 Sudoeste 0 -- -- 72
2019-06-13 09:00:00 10.8 3 Sur 9 Sudeste 0 -- -- 79
2019-06-13 08:00:00 7.9 4 Sur 10 Sur 0 -- -- 89
2019-06-13 07:00:00 6.4 3 Sur 6 Sur 0 -- -- 91
2019-06-13 06:00:00 6.6 3 Sur 7 Sur 0 -- -- 90
2019-06-13 05:00:00 7.2 4 Sur 8 Sudeste 0 -- -- 89
2019-06-13 04:00:00 8.1 2 Sur 8 Sur 0 -- -- 86
2019-06-13 03:00:00 9.1 6 Sur 10 Sur 0 -- -- 84
2019-06-13 02:00:00 10.2 4 Sudoeste 13 Sudoeste 0 -- -- 79
2019-06-13 01:00:00 10.7 5 Sudoeste 17 Sudoeste 0 -- -- 77
2019-06-13 00:00:00 11.6 5 Sur 23 Sudoeste 0 -- -- 73
2019-06-12 23:00:00 13 5 Sur 18 Sudoeste 0 -- -- 69
2019-06-12 22:00:00 15.5 8 Oeste 18 Oeste 0 -- -- 60
2019-06-12 21:00:00 20.2 4 Norte 21 Este 0 -- -- 45
2019-06-12 20:00:00 22.1 8 Nordeste 20 Este 0 -- -- 35
2019-06-12 19:00:00 22.3 10 Nordeste 20 Este 0 -- -- 35
2019-06-12 18:00:00 22.3 7 Este 21 Este 0 -- -- 32
2019-06-12 17:00:00 22.3 6 Este 21 Nordeste 0 -- -- 33
2019-06-12 16:00:00 21.4 9 Norte 23 Este 0 -- -- 35
2019-06-12 15:00:00 20.1 9 Nordeste 17 Nordeste 0 -- -- 38
2019-06-12 14:00:00 18.8 5 Nordeste 15 Este 0 -- -- 41
2019-06-12 13:00:00 17.7 6 Nordeste 19 Norte 0 -- -- 45
2019-06-12 12:00:00 16.2 8 Norte 17 Nordeste 0 -- -- 48
2019-06-12 11:00:00 14.2 5 Norte 13 Nordeste 0 -- -- 55
2019-06-12 10:00:00 11.9 7 Nordeste 13 Nordeste 0 -- -- 64
2019-06-12 09:00:00 10.5 6 Nordeste 12 Norte 0 -- -- 71
2019-06-12 08:00:00 8 5 Sur 15 Sudoeste 0 -- -- 77
2019-06-12 07:00:00 5.9 5 Sur 14 Sur 0 -- -- 84
2019-06-12 06:00:00 6.5 6 Sur 15 Sur 0 -- -- 82
2019-06-12 05:00:00 7.1 9 Sur 17 Sur 0 -- -- 81
2019-06-12 04:00:00 7.1 3 Sur 12 Sur 0 -- -- 83
2019-06-12 03:00:00 7.3 6 Sur 15 Sur 0 -- -- 82
2019-06-12 02:00:00 8.2 5 Sur 10 Sur 0 -- -- 79
2019-06-12 01:00:00 9 5 Sur 16 Sudoeste 0 -- -- 76
2019-06-12 00:00:00 10.1 6 Sudoeste 19 Oeste 0 -- -- 70
2019-06-11 23:00:00 11.2 4 Oeste 15 Oeste 0 -- -- 66
2019-06-11 22:00:00 12.6 3 Oeste 13 Oeste 0 -- -- 66
2019-06-11 21:00:00 15.5 5 Noroeste 13 Norte 0 -- -- 56
2019-06-11 20:00:00 15.4 5 Norte 22 Norte 0 -- -- 56
2019-06-11 19:00:00 15 8 Noroeste 41 Norte 0 -- -- 56
2019-06-11 18:00:00 15.7 8 Norte 33 Norte 0 -- -- 53
2019-06-11 17:00:00 16.7 9 Noroeste 31 Noroeste 0 -- -- 47
2019-06-11 16:00:00 15 12 Noroeste 31 Oeste 0 -- -- 57
2019-06-11 15:00:00 12.8 10 Noroeste 25 Oeste 0.4 -- -- 65
2019-06-11 14:00:00 14.5 10 Noroeste 26 Noroeste 0 -- -- 60
2019-06-11 13:00:00 14.1 12 Noroeste 34 Noroeste 0 -- -- 57
2019-06-11 12:00:00 12.7 6 Noroeste 25 Oeste 0 -- -- 68
2019-06-11 11:00:00 10.2 10 Oeste 22 Oeste 0.4 -- -- 82
2019-06-11 10:00:00 11 6 Oeste 16 Noroeste 0 -- -- 81
2019-06-11 09:00:00 9.6 5 Sudoeste 9 Sudoeste 0.2 -- -- 91
2019-06-11 08:00:00 9.2 5 Sudoeste 7 Sudoeste 0 -- -- 92
2019-06-11 07:00:00 9 3 Sudoeste 8 Sudoeste 0 -- -- 91
2019-06-11 06:00:00 9 3 Sudoeste 7 Sudoeste 0.2 -- -- 92
2019-06-11 05:00:00 8.8 4 Sudoeste 10 Sudoeste 0.6 -- -- 92
2019-06-11 04:00:00 9 5 Sudoeste 11 Sudoeste 1 -- -- 91
2019-06-11 03:00:00 9.4 4 Sur 9 Oeste 1.4 -- -- 90
2019-06-11 02:00:00 9.8 6 Oeste 21 Oeste 0.4 -- -- 86
2019-06-11 01:00:00 10.4 8 Oeste 18 Sudoeste 0 -- -- 81
2019-06-11 00:00:00 11.4 9 Oeste 18 Oeste 0 -- -- 71
2019-06-10 23:00:00 12 5 Oeste 30 Oeste 0 -- -- 70
2019-06-10 22:00:00 12.5 8 Noroeste 21 Noroeste 0 -- -- 68
2019-06-10 21:00:00 14 6 Noroeste 18 Noroeste 0 -- -- 58
2019-06-10 20:00:00 15.6 9 Norte 22 Norte 0 -- -- 55
2019-06-10 19:00:00 17.8 10 Norte 30 Nordeste 0 -- -- 50
2019-06-10 18:00:00 18.5 5 Norte 23 Noroeste 0 -- -- 44
2019-06-10 17:00:00 18.9 9 Oeste 21 Oeste 0 -- -- 44
2019-06-10 16:00:00 16.9 8 Noroeste 21 Noroeste 0 -- -- 50
2019-06-10 15:00:00 16.5 9 Oeste 19 Noroeste 0 -- -- 52
2019-06-10 14:00:00 15.6 7 Oeste 18 Oeste 0 -- -- 54
2019-06-10 13:00:00 13 8 Oeste 19 Oeste 0 -- -- 65
2019-06-10 12:00:00 12.4 11 Oeste 19 Oeste 0 -- -- 69
2019-06-10 11:00:00 11.7 8 Oeste 17 Noroeste 0 -- -- 76
2019-06-10 10:00:00 10.4 7 Oeste 14 Oeste 0 -- -- 86
2019-06-10 09:00:00 10.8 6 Noroeste 19 Oeste 0 -- -- 82
2019-06-10 08:00:00 11 10 Oeste 19 Oeste 0 -- -- 77
2019-06-10 07:00:00 10.9 8 Oeste 22 Noroeste 0 -- -- 76
2019-06-10 06:00:00 10.9 11 Noroeste 29 Noroeste 0 -- -- 75
2019-06-10 05:00:00 11.2 10 Noroeste 21 Noroeste 0 -- -- 80
2019-06-10 04:00:00 11.5 7 Noroeste 21 Noroeste 0 -- -- 82
2019-06-10 03:00:00 12 10 Oeste 22 Oeste 0 -- -- 81
2019-06-10 02:00:00 12.5 7 Noroeste 19 Noroeste 0 -- -- 78
2019-06-10 01:00:00 12.6 8 Noroeste 26 Oeste 0 -- -- 77
2019-06-10 00:00:00 13 8 Noroeste 25 Noroeste 0 -- -- 76
2019-06-09 23:00:00 13.5 13 Noroeste 27 Noroeste 0 -- -- 73
2019-06-09 22:00:00 14.1 13 Noroeste 24 Oeste 0 -- -- 74
2019-06-09 21:00:00 15.1 10 Noroeste 28 Oeste 0 -- -- 73
2019-06-09 20:00:00 16.8 9 Noroeste 30 Oeste 0 -- -- 66
2019-06-09 19:00:00 19 9 Noroeste 28 Norte 0 -- -- 58
2019-06-09 18:00:00 22.3 11 Norte 32 Oeste 0 -- -- 51
2019-06-09 17:00:00 23.3 10 Norte 25 Nordeste 0 -- -- 48
2019-06-09 16:00:00 24.9 8 Norte 21 Oeste 0 -- -- 41
2019-06-09 15:00:00 23.6 6 Norte 20 Oeste 0 -- -- 47
2019-06-09 14:00:00 22.1 8 Noroeste 20 Oeste 0 -- -- 49
2019-06-09 13:00:00 20.5 5 Norte 16 Oeste 0 -- -- 53
2019-06-09 12:00:00 18.2 4 Sudoeste 13 Sur 0 -- -- 63
2019-06-09 11:00:00 16.5 4 Sudoeste 11 Sudeste 0 -- -- 68
2019-06-09 10:00:00 14.2 4 Noroeste 12 Oeste 0 -- -- 75
2019-06-09 09:00:00 13 5 Oeste 10 Oeste 0 -- -- 82
2019-06-09 08:00:00 11.4 5 Noroeste 15 Oeste 0 -- -- 87
2019-06-09 07:00:00 11.1 3 Noroeste 6 Noroeste 0 -- -- 88
2019-06-09 06:00:00 11.5 2 Oeste 6 Oeste 0 -- -- 88
2019-06-09 05:00:00 11.7 4 Sudoeste 13 Sudoeste 0 -- -- 87
2019-06-09 04:00:00 11.9 6 Sudoeste 18 Oeste -- -- -- 86
2019-06-09 03:00:00 12.1 6 Sudoeste 19 Oeste 0 -- -- 85
2019-06-09 02:00:00 12.4 9 Oeste 18 Oeste 0 -- -- 84
2019-06-09 01:00:00 12.8 4 Sur 20 Sudoeste 0 -- -- 82
2019-06-09 00:00:00 13.8 9 Sudoeste 26 Oeste 0 -- -- 78
2019-06-08 23:00:00 14.7 11 Oeste 23 Oeste 0 -- -- 75
2019-06-08 22:00:00 16.2 13 Oeste 32 Oeste 0.6 -- -- 73
2019-06-08 21:00:00 22.9 3 Este 29 Nordeste 0 -- -- 43
2019-06-08 20:00:00 23.9 15 Este 31 Nordeste 0 -- -- 37
2019-06-08 19:00:00 24.5 16 Este 30 Nordeste 0 -- -- 35
2019-06-08 18:00:00 25.5 17 Este 33 Este 0 -- -- 34
2019-06-08 17:00:00 24.6 16 Nordeste 36 Este 0 -- -- 35
2019-06-08 16:00:00 24.6 14 Este 29 Nordeste 0 -- -- 35
2019-06-08 15:00:00 23.5 14 Este 28 Este 0 -- -- 37
2019-06-08 14:00:00 21.2 8 Nordeste 24 Nordeste 0 -- -- 43
2019-06-08 13:00:00 19 8 Nordeste 18 Nordeste 0 -- -- 47
2019-06-08 12:00:00 17.2 9 Norte 19 Nordeste 0 -- -- 52
2019-06-08 11:00:00 15.1 6 Nordeste 13 Norte 0 -- -- 58
2019-06-08 10:00:00 13 3 Nordeste 8 Noroeste 0 -- -- 65
2019-06-08 09:00:00 10.9 0 Calma 8 Sur 0 -- -- 74
2019-06-08 08:00:00 7.9 4 Sur 8 Sudeste 0 -- -- 86
2019-06-08 07:00:00 5.9 4 Sur 8 Sudeste 0 -- -- 90
2019-06-08 06:00:00 6.4 4 Sur 9 Sur 0 -- -- 89
2019-06-08 05:00:00 6.8 4 Sur 9 Sur 0 -- -- 89
2019-06-08 04:00:00 7.7 4 Sur 8 Sur 0 -- -- 85
2019-06-08 03:00:00 8.7 2 Sudoeste 8 Sudoeste 0 -- -- 81
2019-06-08 02:00:00 9.1 4 Sur 9 Sur 0 -- -- 80
2019-06-08 01:00:00 10.1 3 Sur 10 Sudoeste 0 -- -- 77
2019-06-08 00:00:00 11.2 4 Sur 10 Sur 0 -- -- 72
2019-06-07 23:00:00 12.4 7 Sudoeste 23 Oeste 0 -- -- 68
2019-06-07 22:00:00 15.3 5 Sudoeste 14 Oeste 0 -- -- 55
2019-06-07 21:00:00 18.7 5 Norte 30 Oeste 0 -- -- 42
2019-06-07 20:00:00 20 14 Oeste 35 Sudoeste 0 -- -- 30
2019-06-07 19:00:00 20.5 14 Oeste 42 Noroeste 0 -- -- 29
2019-06-07 18:00:00 21 14 Noroeste 36 Oeste 0 -- -- 29
2019-06-07 17:00:00 20.8 12 Oeste 47 Oeste 0 -- -- 33
2019-06-07 16:00:00 19.5 19 Oeste 44 Oeste 0 -- -- 32
2019-06-07 15:00:00 18.9 21 Oeste 41 Oeste 0 -- -- 34
2019-06-07 14:00:00 18.3 19 Oeste 42 Oeste 0 -- -- 36
2019-06-07 13:00:00 17.1 14 Noroeste 39 Oeste 0 -- -- 41
2019-06-07 12:00:00 15.4 19 Oeste 44 Oeste 0 -- -- 44
2019-06-07 11:00:00 15.8 10 Oeste 33 Sudoeste 0 -- -- 45
2019-06-07 10:00:00 14.6 13 Sudoeste 31 Sudoeste 0 -- -- 50
2019-06-07 09:00:00 13.4 13 Sudoeste 34 Oeste 0 -- -- 53
2019-06-07 08:00:00 11.9 8 Sudoeste 18 Sudoeste 0 -- -- 59
2019-06-07 07:00:00 10.4 7 Oeste 23 Oeste 0 -- -- 63
2019-06-07 06:00:00 8.9 4 Sudoeste 10 Sur 0 -- -- 77
2019-06-07 05:00:00 9.4 4 Oeste 24 Sur 0 -- -- 77
2019-06-07 04:00:00 10.7 6 Sudoeste 24 Sudoeste 0.6 -- -- 81
2019-06-07 03:00:00 11.6 12 Oeste 40 Oeste 0.2 -- -- 76
2019-06-07 02:00:00 12.7 17 Oeste 47 Oeste 0 -- -- 77
2019-06-07 01:00:00 18.9 19 Sudoeste 45 Sur 0 -- -- 47
2019-06-07 00:00:00 20.1 6 Sur 42 Sur 0 -- -- 37
2019-06-06 23:00:00 20.2 6 Sudoeste 25 Sur 0 -- -- 33
2019-06-06 22:00:00 20.4 0 Calma 14 Sur 0 -- -- 37
2019-06-06 21:00:00 22.7 10 Sur 33 Sur 0 -- -- 29
2019-06-06 20:00:00 23.5 9 Sur 32 Sur 0 -- -- 27
2019-06-06 19:00:00 24.9 10 Sur 44 Sur 0 -- -- 28
2019-06-06 18:00:00 23.6 14 Sur 43 Sur 0 -- -- 28
2019-06-06 17:00:00 25.7 12 Sur 35 Sur 0 -- -- 28
2019-06-06 16:00:00 24.5 7 Sudoeste 33 Nordeste 0 -- -- 27
2019-06-06 15:00:00 22.4 18 Este 30 Este 0 -- -- 44
2019-06-06 14:00:00 20.4 17 Nordeste 31 Este 0 -- -- 56
2019-06-06 13:00:00 18.2 18 Este 34 Este 0 -- -- 61
2019-06-06 12:00:00 17 16 Nordeste 27 Nordeste 0.2 -- -- 64
2019-06-06 11:00:00 15.3 10 Nordeste 21 Nordeste 0 -- -- 70
2019-06-06 10:00:00 13 4 Nordeste 11 Norte 0 -- -- 75
2019-06-06 09:00:00 11.1 0 Calma 5 Sur 0 -- -- 83
2019-06-06 08:00:00 9.5 2 Sur 3 Sur 0 -- -- 93
2019-06-06 07:00:00 9.1 0 Calma 5 Sudeste 0 -- -- 92
2019-06-06 06:00:00 9.1 0 Calma 4 Sur 0 -- -- 89
2019-06-06 05:00:00 9.6 0 Calma 5 Oeste 0 -- -- 85
2019-06-06 04:00:00 10.3 0 Calma 4 Sudoeste 0 -- -- 82
2019-06-06 03:00:00 10.4 3 Sudoeste 7 Sur 0 -- -- 83
2019-06-06 02:00:00 10.6 4 Sudoeste 9 Sudoeste 0 -- -- 82
2019-06-06 01:00:00 10.9 5 Sur 9 Sudoeste 0 -- -- 84
2019-06-06 00:00:00 11.2 3 Sudoeste 8 Sudoeste 0 -- -- 83
2019-06-05 23:00:00 11.4 4 Sudoeste 12 Sudoeste 0 -- -- 85
2019-06-05 22:00:00 11.6 3 Sur 9 Oeste 0 -- -- 85
2019-06-05 21:00:00 12.6 7 Norte 16 Noroeste 1.4 -- -- 78
2019-06-05 20:00:00 14.9 5 Norte 18 Norte 0 -- -- 64
2019-06-05 19:00:00 15.6 6 Nordeste 16 Norte 0 -- -- 63
2019-06-05 18:00:00 16.5 8 Norte 20 Noroeste 0 -- -- 61
2019-06-05 17:00:00 15.8 9 Oeste 22 Sudoeste 0 -- -- 60
2019-06-05 16:00:00 14.2 5 Sur 23 Sur 0.4 -- -- 79
2019-06-05 15:00:00 11.7 16 Sudoeste 43 Oeste 0.2 -- -- 76
2019-06-05 14:00:00 15.6 9 Noroeste 22 Oeste 0 -- -- 59
2019-06-05 13:00:00 13.3 8 Oeste 22 Oeste 0 -- -- 75
2019-06-05 12:00:00 11.7 8 Oeste 21 Oeste 0 -- -- 78
2019-06-05 11:00:00 10.9 7 Oeste 18 Oeste 0.2 -- -- 87
2019-06-05 10:00:00 10.3 8 Oeste 22 Oeste 0.6 -- -- 87
2019-06-05 09:00:00 10.4 5 Noroeste 22 Oeste 0.8 -- -- 92
2019-06-05 08:00:00 10.4 6 Noroeste 22 Noroeste 3.8 -- -- 93
2019-06-05 07:00:00 10.5 4 Oeste 26 Noroeste 4.4 -- -- 93
2019-06-05 06:00:00 10.7 6 Oeste 21 Oeste 3.4 -- -- 93
2019-06-05 05:00:00 11 9 Oeste 18 Sudoeste 0 -- -- 89
2019-06-05 04:00:00 12.4 6 Noroeste 21 Noroeste 0 -- -- 76
2019-06-05 03:00:00 12.9 9 Noroeste 21 Oeste 0 -- -- 71
2019-06-05 02:00:00 13.4 9 Noroeste 17 Oeste 0 -- -- 75
2019-06-05 01:00:00 13.8 8 Noroeste 19 Noroeste 0 -- -- 70
2019-06-05 00:00:00 14 7 Oeste 13 Sudoeste 0 -- -- 66
2019-06-04 23:00:00 13.8 6 Oeste 30 Noroeste 0 -- -- 68
2019-06-04 22:00:00 14.3 9 Oeste 24 Noroeste 0 -- -- 70
2019-06-04 21:00:00 16.3 13 Oeste 27 Noroeste 0 -- -- 67
2019-06-04 20:00:00 20.4 16 Noroeste 30 Noroeste 0 -- -- 58
2019-06-04 19:00:00 23.7 14 Norte 38 Noroeste 0 -- -- 51
2019-06-04 18:00:00 27.6 16 Noroeste 40 Noroeste 0 -- -- 32
2019-06-04 17:00:00 29.7 14 Noroeste 31 Sudoeste 0 -- -- 30
2019-06-04 16:00:00 29.5 14 Sudoeste 35 Oeste 0 -- -- 30
2019-06-04 15:00:00 28.7 8 Sudoeste 17 Oeste 0 -- -- 35
2019-06-04 14:00:00 27.5 7 Norte 16 Nordeste 0 -- -- 39
2019-06-04 13:00:00 25.6 8 Nordeste 16 Nordeste 0 -- -- 42
2019-06-04 12:00:00 23.4 7 Norte 14 Nordeste 0 -- -- 49
2019-06-04 11:00:00 21.2 4 Noroeste 10 Nordeste 0 -- -- 52
2019-06-04 10:00:00 19 4 Norte 9 Norte 0 -- -- 60
2019-06-04 09:00:00 15.2 4 Sudoeste 9 Sudeste 0 -- -- 73
2019-06-04 08:00:00 12.3 4 Sur 9 Sudeste 0 -- -- 81
2019-06-04 07:00:00 11.6 3 Sur 7 Sudoeste 0 -- -- 81
2019-06-04 06:00:00 12.2 4 Sudoeste 6 Sudeste 0 -- -- 80
2019-06-04 05:00:00 12.8 3 Sur 8 Sur 0 -- -- 76
2019-06-04 04:00:00 13.8 2 Sur 8 Sudeste 0 -- -- 74
2019-06-04 03:00:00 14.8 4 Sur 8 Sudoeste 0 -- -- 71
2019-06-04 02:00:00 16.9 4 Sur 8 Sudeste 0 -- -- 66
2019-06-04 01:00:00 19.1 3 Sudoeste 9 Sudeste 0 -- -- 68
2019-06-04 00:00:00 20.7 3 Sur 22 Oeste 0 -- -- 62
2019-06-03 23:00:00 22.1 5 Sudoeste 13 Sudoeste 0 -- -- 60
2019-06-03 22:00:00 25.2 5 Sur 14 Sur 0 -- -- 46
2019-06-03 21:00:00 28.3 3 Este 18 Este 0 -- -- 38
2019-06-03 20:00:00 30.4 10 Este 23 Este 0 -- -- 32
2019-06-03 19:00:00 31.3 10 Este 21 Este 0 -- -- 31
2019-06-03 18:00:00 31.5 10 Nordeste 19 Nordeste 0 -- -- 31
2019-06-03 17:00:00 31.4 9 Este 23 Nordeste 0 -- -- 31
2019-06-03 16:00:00 30.3 8 Nordeste 24 Nordeste 0 -- -- 31
2019-06-03 15:00:00 29 12 Nordeste 22 Nordeste 0 -- -- 36
2019-06-03 14:00:00 27.5 12 Norte 20 Nordeste 0 -- -- 39
2019-06-03 13:00:00 -- -- -- -- -- -- -- -- --
2019-06-03 12:00:00 23.6 5 Este 11 Este 0 -- -- 48
2019-06-03 11:00:00 20.9 2 Oeste 8 Sudeste 0 -- -- 53
2019-06-03 10:00:00 18.4 0 Calma 9 Sudeste 0 -- -- 62
2019-06-03 09:00:00 16.5 0 Calma 5 Oeste 0 -- -- 70
2019-06-03 08:00:00 14.6 0 Calma 10 Sudeste 0 -- -- 79
2019-06-03 07:00:00 14.5 5 Sudeste 8 Sudeste 0 -- -- 80
2019-06-03 06:00:00 15 2 Sudoeste 6 Sur 0 -- -- 74
2019-06-03 05:00:00 15.8 0 Calma 5 Sur 0 -- -- 71
2019-06-03 04:00:00 16.8 0 Calma 8 Sur 0 -- -- 63
2019-06-03 03:00:00 17.8 4 Sudeste 14 Oeste 0 -- -- 57
2019-06-03 02:00:00 18.6 6 Oeste 14 Sudoeste 0 -- -- 54
2019-06-03 01:00:00 19.6 4 Sudoeste 14 Oeste 0 -- -- 53
2019-06-03 00:00:00 20.1 6 Oeste 16 Sudoeste 0 -- -- 53
2019-06-02 23:00:00 21.1 9 Sudoeste 19 Oeste 0 -- -- 51
2019-06-02 22:00:00 23.3 7 Sudoeste 28 Oeste 0 -- -- 53
2019-06-02 21:00:00 27.6 7 Oeste 24 Oeste 0 -- -- 48
2019-06-02 20:00:00 31.4 2 Este 11 Este 0 -- -- 34
2019-06-02 19:00:00 31 5 Este 18 Nordeste 0 -- -- 33
2019-06-02 18:00:00 31.8 7 Este 21 Este 0 -- -- 32
2019-06-02 17:00:00 31.3 8 Nordeste 20 Nordeste 0 -- -- 34
2019-06-02 16:00:00 31.1 11 Este 22 Este 0 -- -- 34
2019-06-02 15:00:00 29.9 9 Nordeste 19 Nordeste 0 -- -- 37
2019-06-02 14:00:00 28.8 6 Nordeste 18 Nordeste 0 -- -- 38
2019-06-02 13:00:00 26.8 6 Norte 15 Este 0 -- -- 42
2019-06-02 12:00:00 24.8 6 Nordeste 14 Este 0 -- -- 45
2019-06-02 11:00:00 22.2 4 Sudoeste 9 Sudoeste 0 -- -- 52
2019-06-02 10:00:00 20.4 4 Sudeste 8 Sur 0 -- -- 54
2019-06-02 09:00:00 17.8 0 Calma 9 Sudoeste 0 -- -- 63
2019-06-02 08:00:00 14.8 3 Sur 9 Sudoeste 0 -- -- 74
2019-06-02 07:00:00 13.2 4 Sur 8 Sudeste 0 -- -- 77
2019-06-02 06:00:00 14.1 0 Calma 11 Sudeste 0 -- -- 74
2019-06-02 05:00:00 15 2 Este 10 Norte 0 -- -- 71
2019-06-02 04:00:00 16 3 Este 9 Nordeste 0 -- -- 68
2019-06-02 03:00:00 15.4 2 Sur 6 Sur 0 -- -- 71
2019-06-02 02:00:00 16.5 3 Sur 10 Sur 0 -- -- 67
2019-06-02 01:00:00 18.2 3 Sur 6 Sur 0 -- -- 60
2019-06-02 00:00:00 19.8 2 Sur 9 Sur 0 -- -- 53
2019-06-01 23:00:00 22.2 4 Sur 12 Sudeste 0 -- -- 48
2019-06-01 22:00:00 26.3 0 Calma 11 Este 0 -- -- 34
2019-06-01 21:00:00 29.8 7 Este 18 Este 0 -- -- 28
2019-06-01 20:00:00 31.4 7 Este 19 Este 0 -- -- 26
2019-06-01 19:00:00 32.6 6 Este 18 Este 0 -- -- 26
2019-06-01 18:00:00 32.1 9 Nordeste 18 Nordeste 0 -- -- 27
2019-06-01 17:00:00 31.3 11 Nordeste 22 Nordeste 0 -- -- 30
2019-06-01 16:00:00 30.6 13 Nordeste 27 Este 0 -- -- 34
2019-06-01 15:00:00 29.7 14 Este 27 Este 0 -- -- 36
2019-06-01 14:00:00 27.9 12 Este 22 Este 0 -- -- 40
2019-06-01 13:00:00 25.9 12 Nordeste 23 Este 0 -- -- 42
2019-06-01 12:00:00 23.9 9 Este 21 Este 0 -- -- 48
2019-06-01 11:00:00 21.8 7 Nordeste 14 Norte 0 -- -- 53
2019-06-01 10:00:00 19.5 4 Nordeste 8 Nordeste 0 -- -- 61
2019-06-01 09:00:00 15.9 2 Sudoeste 6 Sur 0 -- -- 67
2019-06-01 08:00:00 12.3 4 Sur 9 Sur 0 -- -- 77
2019-06-01 07:00:00 10.2 2 Sur 8 Sur 0 -- -- 81
2019-06-01 06:00:00 10.8 3 Sur 6 Sur 0 -- -- 80
2019-06-01 05:00:00 11.9 0 Calma 4 Este 0 -- -- 77
2019-06-01 04:00:00 12.8 0 Calma 6 Sur 0 -- -- 74
2019-06-01 03:00:00 13.9 4 Sur 6 Sur 0 -- -- 69
2019-06-01 02:00:00 15.6 2 Sur 8 Sur 0 -- -- 61
2019-06-01 01:00:00 16.3 6 Sur 10 Sur 0 -- -- 61
2019-06-01 00:00:00 18.1 4 Sudeste 8 Sur 0 -- -- 54
2019-05-31 23:00:00 20.4 4 Sur 12 Sur 0 -- -- 51
2019-05-31 22:00:00 24.8 0 Calma 6 Este 0 -- -- 38
2019-05-31 21:00:00 29 3 Este 15 Este 0 -- -- 27
2019-05-31 20:00:00 30.1 6 Este 17 Nordeste 0 -- -- 25
2019-05-31 19:00:00 30.7 6 Este 21 Nordeste 0 -- -- 26
2019-05-31 18:00:00 30.7 8 Este 22 Este 0 -- -- 25
2019-05-31 17:00:00 30.4 8 Este 23 Nordeste 0 -- -- 28
2019-05-31 16:00:00 29.8 12 Nordeste 21 Este 0 -- -- 31
2019-05-31 15:00:00 28.5 13 Nordeste 26 Este 0 -- -- 33
2019-05-31 14:00:00 27.3 10 Este 24 Nordeste 0 -- -- 40
2019-05-31 13:00:00 25.6 13 Nordeste 22 Nordeste 0 -- -- 45
2019-05-31 12:00:00 23.4 8 Nordeste 15 Nordeste 0 -- -- 51
2019-05-31 11:00:00 20.8 7 Nordeste 13 Norte 0 -- -- 58
2019-05-31 10:00:00 19.2 4 Nordeste 8 Norte 0 -- -- 62
2019-05-31 09:00:00 16.2 0 Calma 4 Nordeste 0 -- -- 70
2019-05-31 08:00:00 13.4 3 Sur 9 Sur 0 -- -- 79
2019-05-31 07:00:00 11.1 5 Sur 9 Sur 0 -- -- 84
2019-05-31 06:00:00 11.4 6 Sur 9 Sur 0 -- -- 83
2019-05-31 05:00:00 11.7 3 Sur 10 Sudeste 0 -- -- 83
2019-05-31 04:00:00 12.2 3 Sur 10 Sur 0 -- -- 82
2019-05-31 03:00:00 13.1 5 Sur 9 Sur 0 -- -- 80
2019-05-31 02:00:00 14.3 5 Sur 10 Sur 0 -- -- 75
2019-05-31 01:00:00 15.9 0 Calma 12 Sudoeste 0 -- -- 69
2019-05-31 00:00:00 17.2 6 Sur 12 Sur 0 -- -- 66
2019-05-30 23:00:00 19.2 6 Sur 12 Sur 0 -- -- 60
2019-05-30 22:00:00 22.5 3 Norte 14 Norte 0 -- -- 50
2019-05-30 21:00:00 26.3 4 Norte 14 Norte 0 -- -- 40
2019-05-30 20:00:00 27.7 5 Norte 22 Norte 0 -- -- 35
2019-05-30 19:00:00 28.5 3 Oeste 15 Norte 0 -- -- 32
2019-05-30 18:00:00 28.2 5 Norte 17 Norte 0 -- -- 35
2019-05-30 17:00:00 28.2 4 Norte 13 Sudeste 0 -- -- 33
2019-05-30 16:00:00 26.9 7 Norte 15 Norte 0 -- -- 35
2019-05-30 15:00:00 25.5 5 Noroeste 14 Noroeste 0 -- -- 36
2019-05-30 14:00:00 24.1 3 Noroeste 15 Oeste 0 -- -- 40
2019-05-30 13:00:00 22.7 4 Noroeste 13 Norte 0 -- -- 47
2019-05-30 12:00:00 20.3 6 Noroeste 13 Oeste 0 -- -- 54
2019-05-30 11:00:00 18.6 4 Norte 9 Oeste 0 -- -- 59
2019-05-30 10:00:00 16 2 Este 6 Oeste 0 -- -- 63
2019-05-30 09:00:00 12.7 4 Sur 11 Sur 0 -- -- 75
2019-05-30 08:00:00 9.1 5 Sur 9 Sur 0 -- -- 87
2019-05-30 07:00:00 6.7 5 Sur 9 Sur 0 -- -- 91
2019-05-30 06:00:00 7.1 4 Sur 8 Sudoeste 0 -- -- 90
2019-05-30 05:00:00 7.7 2 Oeste 5 Sudoeste 0 -- -- 90
2019-05-30 04:00:00 8.3 0 Calma 10 Sur 0 -- -- 88
2019-05-30 03:00:00 8.8 5 Sur 10 Sudeste 0 -- -- 88
2019-05-30 02:00:00 9.5 0 Calma 9 Sur 0 -- -- 86
2019-05-30 01:00:00 10.2 5 Sur 10 Sur 0 -- -- 84
2019-05-30 00:00:00 11.6 4 Sur 10 Sudeste 0 -- -- 81
2019-05-29 23:00:00 13.5 3 Sudoeste 9 Sudoeste 0 -- -- 73
2019-05-29 22:00:00 15.2 2 Noroeste 11 Oeste 0 -- -- 66
2019-05-29 21:00:00 18.3 3 Noroeste 15 Noroeste 0 -- -- 56
2019-05-29 20:00:00 19 6 Noroeste 18 Noroeste 0 -- -- 55
2019-05-29 19:00:00 19 5 Noroeste 21 Noroeste 0 -- -- 54
2019-05-29 18:00:00 18.6 9 Noroeste 26 Noroeste 0 -- -- 55
2019-05-29 17:00:00 16.7 5 Noroeste 20 Oeste 0 -- -- 62
2019-05-29 16:00:00 15.6 8 Oeste 21 Oeste 0 -- -- 66
2019-05-29 15:00:00 15.9 5 Noroeste 17 Noroeste 0 -- -- 64
2019-05-29 14:00:00 14 8 Oeste 18 Oeste 0 -- -- 73
2019-05-29 13:00:00 13.4 3 Sudoeste 14 Noroeste 0 -- -- 75
2019-05-29 12:00:00 12.3 3 Norte 14 Oeste 0 -- -- 80
2019-05-29 11:00:00 11.9 4 Oeste 18 Oeste 0 -- -- 76
2019-05-29 10:00:00 11.9 9 Oeste 20 Oeste 0 -- -- 74
2019-05-29 09:00:00 11.7 6 Noroeste 12 Noroeste 0 -- -- 72
2019-05-29 08:00:00 11.1 4 Sudoeste 12 Sudoeste 0 -- -- 73
2019-05-29 07:00:00 10.5 3 Sudoeste 7 Sur 0 -- -- 79
2019-05-29 06:00:00 10.3 0 Calma 8 Sur 0 -- -- 77
2019-05-29 05:00:00 10.2 4 Sur 18 Oeste 0 -- -- 80
2019-05-29 04:00:00 10.7 8 Noroeste 19 Oeste 0 -- -- 77
2019-05-29 03:00:00 10.7 3 Sudeste 7 Sur 0 -- -- 80
2019-05-29 02:00:00 10.7 0 Calma 6 Sudoeste 0 -- -- 78
2019-05-29 01:00:00 10.9 2 Sur 9 Sudoeste 0 -- -- 77
2019-05-29 00:00:00 11.1 4 Oeste 12 Norte 0 -- -- 72
2019-05-28 23:00:00 11.4 3 Norte 17 Norte 0 -- -- 70
2019-05-28 22:00:00 12.7 5 Norte 21 Norte 0 -- -- 63
2019-05-28 21:00:00 13.4 9 Norte 21 Norte 0 -- -- 59
2019-05-28 20:00:00 15.3 10 Norte 21 Norte 0 -- -- 56
2019-05-28 19:00:00 15.6 10 Norte 21 Norte 0 -- -- 56
2019-05-28 18:00:00 16.2 6 Norte 24 Norte 0 -- -- 55
2019-05-28 17:00:00 16.9 6 Norte 28 Oeste 0 -- -- 52
2019-05-28 16:00:00 15.7 6 Noroeste 21 Oeste 0 -- -- 59
2019-05-28 15:00:00 15.5 6 Noroeste 19 Oeste 0 -- -- 56
2019-05-28 14:00:00 14.5 10 Noroeste 22 Oeste 0 -- -- 63
2019-05-28 13:00:00 14.6 9 Noroeste 23 Noroeste 0 -- -- 60
2019-05-28 12:00:00 14.3 5 Noroeste 16 Noroeste 0 -- -- 58
2019-05-28 11:00:00 13.7 5 Noroeste 19 Oeste 0 -- -- 58
2019-05-28 10:00:00 12.7 5 Sudoeste 16 Oeste 0 -- -- 64
2019-05-28 09:00:00 11.4 9 Oeste 15 Oeste 0 -- -- 69
2019-05-28 08:00:00 11.2 6 Sudoeste 13 Oeste 0 -- -- 71
2019-05-28 07:00:00 10.1 5 Oeste 17 Sudoeste 0 -- -- 76
2019-05-28 06:00:00 9.4 3 Sudoeste 9 Sur 0 -- -- 84
2019-05-28 05:00:00 9.1 5 Sur 9 Sudoeste 0 -- -- 88
2019-05-28 04:00:00 9.1 2 Sur 6 Sudeste 0 -- -- 87
2019-05-28 03:00:00 9.2 4 Sur 7 Sur 0 -- -- 85
2019-05-28 02:00:00 9.6 4 Sur 8 Sur 0 -- -- 85
2019-05-28 01:00:00 11 2 Sudoeste 7 Sur 0 -- -- 80
2019-05-28 00:00:00 12.4 2 Norte 11 Oeste 0 -- -- 74
2019-05-27 23:00:00 12.9 2 Noroeste 13 Noroeste 0 -- -- 70
2019-05-27 22:00:00 14.2 4 Noroeste 19 Noroeste 0 -- -- 72
2019-05-27 21:00:00 15.9 9 Norte 27 Nordeste 0 -- -- 68
2019-05-27 20:00:00 17.9 9 Norte 27 Nordeste 0 -- -- 63
2019-05-27 19:00:00 20 10 Norte 30 Oeste 0 -- -- 59
2019-05-27 18:00:00 20.2 6 Noroeste 18 Norte 0 -- -- 57
2019-05-27 17:00:00 20.1 8 Norte 20 Oeste 0 -- -- 62
2019-05-27 16:00:00 19.5 6 Noroeste 21 Norte 0 -- -- 62
2019-05-27 15:00:00 18.7 7 Norte 20 Oeste 0 -- -- 65
2019-05-27 14:00:00 18.8 5 Noroeste 17 Oeste 0 -- -- 61
2019-05-27 13:00:00 17.4 8 Oeste 15 Oeste 0 -- -- 64
2019-05-27 12:00:00 15.5 3 Noroeste 13 Sudoeste 0 -- -- 70
2019-05-27 11:00:00 14.8 6 Noroeste 14 Noroeste 0 -- -- 69
2019-05-27 10:00:00 13.5 5 Oeste 10 Oeste 0 -- -- 75
2019-05-27 09:00:00 11.7 4 Sudoeste 8 Sur 0 -- -- 84
2019-05-27 08:00:00 10.5 5 Sur 9 Sudoeste 0 -- -- 87
2019-05-27 07:00:00 9.9 3 Sur 8 Sur 0 -- -- 91
2019-05-27 06:00:00 10.3 2 Sur 9 Sudoeste 0 -- -- 88
2019-05-27 05:00:00 11.3 4 Oeste 10 Sudoeste 0 -- -- 84
2019-05-27 04:00:00 11.7 5 Oeste 12 Sudoeste 0 -- -- 83
2019-05-27 03:00:00 12.1 6 Oeste 12 Oeste 0 -- -- 83
2019-05-27 02:00:00 12.4 3 Sudoeste 15 Noroeste 0 -- -- 81
2019-05-27 01:00:00 12.7 8 Oeste 15 Oeste 0 -- -- 79
2019-05-27 00:00:00 12.9 5 Oeste 12 Oeste 0 -- -- 78